sensor_id;sensor_type;location;lat;lon;timestamp;pressure;altitude;pressure_sealevel;temperature;humidity
13767;BME280;47980;48.794;9.176;2023-05-25T00:01:53;98650.47;;;11.92;61.62
13767;BME280;47980;48.794;9.176;2023-05-25T00:04:25;98644.53;;;11.87;61.04
13767;BME280;47980;48.794;9.176;2023-05-25T00:07:01;98649.06;;;11.86;60.71
13767;BME280;47980;48.794;9.176;2023-05-25T00:09:33;98646.41;;;11.77;62.37
13767;BME280;47980;48.794;9.176;2023-05-25T00:12:06;98645.59;;;11.94;61.73
13767;BME280;47980;48.794;9.176;2023-05-25T00:14:37;98647.69;;;11.71;62.53
13767;BME280;47980;48.794;9.176;2023-05-25T00:17:09;98645.59;;;11.94;60.92
13767;BME280;47980;48.794;9.176;2023-05-25T00:19:40;98640.50;;;11.72;62.02
13767;BME280;47980;48.794;9.176;2023-05-25T00:22:14;98650.50;;;11.75;62.81
13767;BME280;47980;48.794;9.176;2023-05-25T00:24:46;98642.22;;;11.76;61.78
13767;BME280;47980;48.794;9.176;2023-05-25T00:27:18;98642.94;;;11.94;61.10
13767;BME280;47980;48.794;9.176;2023-05-25T00:29:49;98643.75;;;11.86;61.03
13767;BME280;47980;48.794;9.176;2023-05-25T00:32:21;98636.56;;;11.78;62.88
13767;BME280;47980;48.794;9.176;2023-05-25T00:34:55;98642.34;;;11.89;61.86
13767;BME280;47980;48.794;9.176;2023-05-25T00:37:27;98638.25;;;11.82;61.32
13767;BME280;47980;48.794;9.176;2023-05-25T00:39:59;98645.00;;;11.89;61.20
13767;BME280;47980;48.794;9.176;2023-05-25T00:42:31;98641.56;;;11.88;62.07
13767;BME280;47980;48.794;9.176;2023-05-25T00:45:04;98642.34;;;12.18;61.16
13767;BME280;47980;48.794;9.176;2023-05-25T00:47:36;98642.13;;;12.02;62.16
13767;BME280;47980;48.794;9.176;2023-05-25T00:50:09;98640.84;;;12.09;60.35
13767;BME280;47980;48.794;9.176;2023-05-25T00:52:46;98640.94;;;12.21;61.31
13767;BME280;47980;48.794;9.176;2023-05-25T00:55:18;98639.00;;;12.00;60.87
13767;BME280;47980;48.794;9.176;2023-05-25T00:57:52;98626.34;;;11.97;61.40
13767;BME280;47980;48.794;9.176;2023-05-25T01:00:26;98621.34;;;11.96;61.21
13767;BME280;47980;48.794;9.176;2023-05-25T01:02:59;98627.94;;;11.90;61.01
13767;BME280;47980;48.794;9.176;2023-05-25T01:05:34;98627.34;;;11.75;61.18
13767;BME280;47980;48.794;9.176;2023-05-25T01:08:09;98623.41;;;11.81;61.21
13767;BME280;47980;48.794;9.176;2023-05-25T01:10:42;98621.88;;;11.80;61.14
13767;BME280;47980;48.794;9.176;2023-05-25T01:13:17;98628.44;;;11.74;61.10
13767;BME280;47980;48.794;9.176;2023-05-25T01:15:50;98623.63;;;11.68;61.42
13767;BME280;47980;48.794;9.176;2023-05-25T01:18:22;98623.47;;;11.73;62.67
13767;BME280;47980;48.794;9.176;2023-05-25T01:21:02;98622.56;;;11.60;62.33
13767;BME280;47980;48.794;9.176;2023-05-25T01:23:46;98623.19;;;11.57;62.00
13767;BME280;47980;48.794;9.176;2023-05-25T01:26:22;98627.25;;;11.54;62.43
13767;BME280;47980;48.794;9.176;2023-05-25T01:28:57;98631.31;;;11.61;62.01
13767;BME280;47980;48.794;9.176;2023-05-25T01:31:30;98624.16;;;11.52;63.40
13767;BME280;47980;48.794;9.176;2023-05-25T01:34:03;98619.78;;;11.39;64.04
13767;BME280;47980;48.794;9.176;2023-05-25T01:36:37;98616.53;;;11.33;64.44
13767;BME280;47980;48.794;9.176;2023-05-25T01:39:09;98620.91;;;11.38;64.60
13767;BME280;47980;48.794;9.176;2023-05-25T01:41:43;98626.53;;;11.28;64.71
13767;BME280;47980;48.794;9.176;2023-05-25T01:44:14;98627.78;;;11.22;65.21
13767;BME280;47980;48.794;9.176;2023-05-25T01:46:49;98624.38;;;11.21;65.42
13767;BME280;47980;48.794;9.176;2023-05-25T01:49:26;98630.94;;;11.15;63.98
13767;BME280;47980;48.794;9.176;2023-05-25T01:52:07;98632.81;;;11.15;65.73
13767;BME280;47980;48.794;9.176;2023-05-25T01:54:46;98633.13;;;11.13;65.42
13767;BME280;47980;48.794;9.176;2023-05-25T01:57:19;98627.66;;;11.18;64.41
13767;BME280;47980;48.794;9.176;2023-05-25T01:59:51;98636.56;;;11.14;65.33
13767;BME280;47980;48.794;9.176;2023-05-25T02:02:25;98631.72;;;11.16;65.25
13767;BME280;47980;48.794;9.176;2023-05-25T02:04:57;98633.94;;;11.05;65.34
13767;BME280;47980;48.794;9.176;2023-05-25T02:07:30;98624.25;;;10.92;66.15
13767;BME280;47980;48.794;9.176;2023-05-25T02:10:04;98620.03;;;10.91;66.77
13767;BME280;47980;48.794;9.176;2023-05-25T02:12:36;98620.66;;;10.88;66.13
13767;BME280;47980;48.794;9.176;2023-05-25T02:15:08;98617.53;;;10.77;67.24
13767;BME280;47980;48.794;9.176;2023-05-25T02:17:40;98616.44;;;10.78;66.67
13767;BME280;47980;48.794;9.176;2023-05-25T02:20:12;98611.47;;;10.76;66.94
13767;BME280;47980;48.794;9.176;2023-05-25T02:22:45;98612.69;;;10.70;67.48
13767;BME280;47980;48.794;9.176;2023-05-25T02:25:16;98606.31;;;10.71;68.08
13767;BME280;47980;48.794;9.176;2023-05-25T02:27:48;98606.31;;;10.71;67.84
13767;BME280;47980;48.794;9.176;2023-05-25T02:30:20;98607.38;;;10.70;67.66
13767;BME280;47980;48.794;9.176;2023-05-25T02:32:51;98603.03;;;10.66;68.78
13767;BME280;47980;48.794;9.176;2023-05-25T02:35:24;98607.22;;;10.67;67.29
13767;BME280;47980;48.794;9.176;2023-05-25T02:37:57;98595.84;;;10.57;67.66
13767;BME280;47980;48.794;9.176;2023-05-25T02:40:28;98597.25;;;10.64;69.30
13767;BME280;47980;48.794;9.176;2023-05-25T02:43:00;98600.69;;;10.55;67.99
13767;BME280;47980;48.794;9.176;2023-05-25T02:45:31;98600.22;;;10.53;68.99
13767;BME280;47980;48.794;9.176;2023-05-25T02:48:03;98604.56;;;10.67;67.76
13767;BME280;47980;48.794;9.176;2023-05-25T02:50:34;98600.22;;;10.62;68.81
13767;BME280;47980;48.794;9.176;2023-05-25T02:53:07;98606.59;;;10.52;68.57
13767;BME280;47980;48.794;9.176;2023-05-25T02:55:39;98607.25;;;10.58;67.77
13767;BME280;47980;48.794;9.176;2023-05-25T02:58:12;98615.66;;;10.60;68.22
13767;BME280;47980;48.794;9.176;2023-05-25T03:00:44;98620.94;;;10.60;68.90
13767;BME280;47980;48.794;9.176;2023-05-25T03:03:15;98616.59;;;10.55;67.96
13767;BME280;47980;48.794;9.176;2023-05-25T03:05:47;98619.25;;;10.55;68.37
13767;BME280;47980;48.794;9.176;2023-05-25T03:08:20;98620.63;;;10.44;68.46
13767;BME280;47980;48.794;9.176;2023-05-25T03:10:51;98623.91;;;10.41;68.77
13767;BME280;47980;48.794;9.176;2023-05-25T03:13:23;98624.06;;;10.36;69.75
13767;BME280;47980;48.794;9.176;2023-05-25T03:15:54;98625.44;;;10.33;70.23
13767;BME280;47980;48.794;9.176;2023-05-25T03:18:26;98623.91;;;10.41;69.53
13767;BME280;47980;48.794;9.176;2023-05-25T03:20:58;98634.50;;;10.32;69.52
13767;BME280;47980;48.794;9.176;2023-05-25T03:23:31;98628.75;;;10.39;69.98
13767;BME280;47980;48.794;9.176;2023-05-25T03:26:02;98629.03;;;10.38;70.69
13767;BME280;47980;48.794;9.176;2023-05-25T03:28:34;98633.38;;;10.25;70.61
13767;BME280;47980;48.794;9.176;2023-05-25T03:31:05;98637.72;;;10.21;70.92
13767;BME280;47980;48.794;9.176;2023-05-25T03:33:37;98627.88;;;10.12;71.13
13767;BME280;47980;48.794;9.176;2023-05-25T03:36:09;98631.78;;;10.15;70.99
13767;BME280;47980;48.794;9.176;2023-05-25T03:38:43;98636.13;;;10.02;71.92
13767;BME280;47980;48.794;9.176;2023-05-25T03:41:14;98633.97;;;10.13;71.56
13767;BME280;47980;48.794;9.176;2023-05-25T03:43:46;98622.56;;;10.04;71.47
13767;BME280;47980;48.794;9.176;2023-05-25T03:46:17;98632.66;;;10.02;71.90
13767;BME280;47980;48.794;9.176;2023-05-25T03:48:49;98624.31;;;10.17;71.40
13767;BME280;47980;48.794;9.176;2023-05-25T03:51:20;98627.28;;;10.24;71.81
13767;BME280;47980;48.794;9.176;2023-05-25T03:53:53;98631.41;;;10.56;70.54
13767;BME280;47980;48.794;9.176;2023-05-25T03:56:25;98635.34;;;10.76;69.05
13767;BME280;47980;48.794;9.176;2023-05-25T03:58:57;98635.00;;;11.13;68.21
13767;BME280;47980;48.794;9.176;2023-05-25T04:01:29;98649.78;;;11.40;66.55
13767;BME280;47980;48.794;9.176;2023-05-25T04:04:00;98646.41;;;11.77;65.02
13767;BME280;47980;48.794;9.176;2023-05-25T04:06:32;98653.59;;;12.24;63.75
13767;BME280;47980;48.794;9.176;2023-05-25T04:09:07;98654.53;;;11.90;65.08
13767;BME280;47980;48.794;9.176;2023-05-25T04:11:39;98660.59;;;11.99;65.66
13767;BME280;47980;48.794;9.176;2023-05-25T04:14:10;98661.81;;;12.10;63.72
13767;BME280;47980;48.794;9.176;2023-05-25T04:16:42;98665.72;;;11.48;65.84
13767;BME280;47980;48.794;9.176;2023-05-25T04:19:14;98657.44;;;11.59;65.85
13767;BME280;47980;48.794;9.176;2023-05-25T04:21:46;98657.16;;;11.98;63.86
13767;BME280;47980;48.794;9.176;2023-05-25T04:24:20;98660.44;;;12.55;61.32
13767;BME280;47980;48.794;9.176;2023-05-25T04:26:52;98660.00;;;12.73;62.48
13767;BME280;47980;48.794;9.176;2023-05-25T04:29:27;98657.38;;;12.44;62.81
13767;BME280;47980;48.794;9.176;2023-05-25T04:31:59;98655.84;;;12.13;61.79
13767;BME280;47980;48.794;9.176;2023-05-25T04:34:31;98654.38;;;11.86;64.77
13767;BME280;47980;48.794;9.176;2023-05-25T04:37:03;98656.19;;;11.56;66.91
13767;BME280;47980;48.794;9.176;2023-05-25T04:39:39;98654.97;;;11.45;68.14
13767;BME280;47980;48.794;9.176;2023-05-25T04:42:10;98659.16;;;11.46;67.20
13767;BME280;47980;48.794;9.176;2023-05-25T04:44:42;98663.97;;;11.70;66.69
13767;BME280;47980;48.794;9.176;2023-05-25T04:47:13;98660.75;;;11.94;65.67
13767;BME280;47980;48.794;9.176;2023-05-25T04:49:45;98666.34;;;12.10;65.12
13767;BME280;47980;48.794;9.176;2023-05-25T04:52:17;98667.63;;;12.33;63.26
13767;BME280;47980;48.794;9.176;2023-05-25T04:54:50;98667.56;;;12.12;64.38
13767;BME280;47980;48.794;9.176;2023-05-25T04:57:22;98661.13;;;12.22;65.46
13767;BME280;47980;48.794;9.176;2023-05-25T04:59:57;98669.66;;;12.36;64.18
13767;BME280;47980;48.794;9.176;2023-05-25T05:02:28;98670.81;;;12.47;62.16
13767;BME280;47980;48.794;9.176;2023-05-25T05:05:00;98670.38;;;12.66;63.73
13767;BME280;47980;48.794;9.176;2023-05-25T05:07:31;98676.97;;;12.69;62.30
13767;BME280;47980;48.794;9.176;2023-05-25T05:10:05;98678.50;;;12.70;62.86
13767;BME280;47980;48.794;9.176;2023-05-25T05:12:37;98675.38;;;12.47;63.62
13767;BME280;47980;48.794;9.176;2023-05-25T05:15:09;98669.28;;;12.46;63.19
13767;BME280;47980;48.794;9.176;2023-05-25T05:17:40;98684.59;;;12.70;63.00
13767;BME280;47980;48.794;9.176;2023-05-25T05:20:12;98685.53;;;12.74;62.70
13767;BME280;47980;48.794;9.176;2023-05-25T05:22:44;98693.22;;;12.97;62.37
13767;BME280;47980;48.794;9.176;2023-05-25T05:25:17;98691.13;;;13.02;61.78
13767;BME280;47980;48.794;9.176;2023-05-25T05:27:50;98693.97;;;12.97;61.61
13767;BME280;47980;48.794;9.176;2023-05-25T05:30:22;98694.50;;;13.12;61.13
13767;BME280;47980;48.794;9.176;2023-05-25T05:32:53;98709.66;;;13.53;60.30
13767;BME280;47980;48.794;9.176;2023-05-25T05:35:25;98704.19;;;13.37;61.14
13767;BME280;47980;48.794;9.176;2023-05-25T05:37:56;98701.84;;;13.15;61.34
13767;BME280;47980;48.794;9.176;2023-05-25T05:40:29;98706.47;;;13.60;61.00
13767;BME280;47980;48.794;9.176;2023-05-25T05:43:01;98707.19;;;13.69;59.78
13767;BME280;47980;48.794;9.176;2023-05-25T05:45:32;98700.31;;;13.47;60.02
13767;BME280;47980;48.794;9.176;2023-05-25T05:48:04;98708.28;;;13.35;60.07
13767;BME280;47980;48.794;9.176;2023-05-25T05:50:39;98712.88;;;13.46;61.11
13767;BME280;47980;48.794;9.176;2023-05-25T05:53:10;98721.09;;;13.54;60.78
13767;BME280;47980;48.794;9.176;2023-05-25T05:55:44;98716.91;;;13.65;59.76
13767;BME280;47980;48.794;9.176;2023-05-25T05:58:17;98722.25;;;13.65;60.01
13767;BME280;47980;48.794;9.176;2023-05-25T06:00:49;98737.34;;;13.61;60.59
13767;BME280;47980;48.794;9.176;2023-05-25T06:03:21;98728.53;;;13.48;62.63
13767;BME280;47980;48.794;9.176;2023-05-25T06:05:53;98732.22;;;13.56;60.63
13767;BME280;47980;48.794;9.176;2023-05-25T06:08:24;98738.63;;;13.42;61.82
13767;BME280;47980;48.794;9.176;2023-05-25T06:10:58;98742.78;;;13.52;61.27
13767;BME280;47980;48.794;9.176;2023-05-25T06:13:29;98737.81;;;13.21;62.90
13767;BME280;47980;48.794;9.176;2023-05-25T06:16:01;98738.75;;;13.46;61.91
13767;BME280;47980;48.794;9.176;2023-05-25T06:18:32;98747.59;;;13.71;60.86
13767;BME280;47980;48.794;9.176;2023-05-25T06:21:05;98745.44;;;13.52;62.70
13767;BME280;47980;48.794;9.176;2023-05-25T06:23:36;98744.16;;;13.70;62.13
13767;BME280;47980;48.794;9.176;2023-05-25T06:26:09;98744.94;;;14.16;60.25
13767;BME280;47980;48.794;9.176;2023-05-25T06:28:41;98740.84;;;14.43;60.39
13767;BME280;47980;48.794;9.176;2023-05-25T06:31:12;98735.16;;;14.45;60.14
13767;BME280;47980;48.794;9.176;2023-05-25T06:33:44;98737.59;;;14.87;58.38
13767;BME280;47980;48.794;9.176;2023-05-25T06:36:15;98737.97;;;14.61;59.59
13767;BME280;47980;48.794;9.176;2023-05-25T06:38:47;98742.84;;;14.34;59.74
13767;BME280;47980;48.794;9.176;2023-05-25T06:41:20;98745.00;;;14.53;59.79
13767;BME280;47980;48.794;9.176;2023-05-25T06:43:51;98747.97;;;14.52;59.41
13767;BME280;47980;48.794;9.176;2023-05-25T06:46:23;98746.28;;;14.47;58.70
13767;BME280;47980;48.794;9.176;2023-05-25T06:48:54;98744.53;;;14.51;59.18
13767;BME280;47980;48.794;9.176;2023-05-25T06:51:26;98748.63;;;14.85;58.35
13767;BME280;47980;48.794;9.176;2023-05-25T06:53:58;98743.41;;;14.64;59.73
13767;BME280;47980;48.794;9.176;2023-05-25T06:56:31;98750.59;;;14.88;58.88
13767;BME280;47980;48.794;9.176;2023-05-25T06:59:02;98754.78;;;15.14;59.02
13767;BME280;47980;48.794;9.176;2023-05-25T07:01:34;98760.34;;;15.21;59.41
13767;BME280;47980;48.794;9.176;2023-05-25T07:04:05;98765.78;;;14.72;60.73
13767;BME280;47980;48.794;9.176;2023-05-25T07:06:37;98759.19;;;14.45;60.43
13767;BME280;47980;48.794;9.176;2023-05-25T07:09:09;98771.44;;;14.58;61.27
13767;BME280;47980;48.794;9.176;2023-05-25T07:11:42;98756.56;;;14.57;60.68
13767;BME280;47980;48.794;9.176;2023-05-25T07:14:13;98766.22;;;14.74;61.94
13767;BME280;47980;48.794;9.176;2023-05-25T07:16:45;98767.56;;;14.56;61.70
13767;BME280;47980;48.794;9.176;2023-05-25T07:19:17;98762.22;;;14.68;61.46
13767;BME280;47980;48.794;9.176;2023-05-25T07:21:48;98762.53;;;14.66;61.98
13767;BME280;47980;48.794;9.176;2023-05-25T07:24:20;98759.47;;;15.17;60.87
13767;BME280;47980;48.794;9.176;2023-05-25T07:26:53;98775.34;;;15.38;59.75
13767;BME280;47980;48.794;9.176;2023-05-25T07:29:24;98777.97;;;15.10;59.36
13767;BME280;47980;48.794;9.176;2023-05-25T07:31:56;98773.63;;;15.05;60.29
13767;BME280;47980;48.794;9.176;2023-05-25T07:34:27;98770.50;;;15.15;60.34
13767;BME280;47980;48.794;9.176;2023-05-25T07:36:59;98771.31;;;15.04;61.19
13767;BME280;47980;48.794;9.176;2023-05-25T07:39:30;98775.63;;;15.49;60.01
13767;BME280;47980;48.794;9.176;2023-05-25T07:42:04;98777.97;;;15.10;60.83
13767;BME280;47980;48.794;9.176;2023-05-25T07:44:35;98774.50;;;15.22;60.97
13767;BME280;47980;48.794;9.176;2023-05-25T07:47:07;98778.59;;;15.31;61.52
13767;BME280;47980;48.794;9.176;2023-05-25T07:49:38;98782.72;;;15.57;60.12
13767;BME280;47980;48.794;9.176;2023-05-25T07:52:14;98783.22;;;16.19;58.19
13767;BME280;47980;48.794;9.176;2023-05-25T07:54:45;98774.31;;;15.99;58.73
13767;BME280;47980;48.794;9.176;2023-05-25T07:57:18;98776.78;;;15.76;59.69
13767;BME280;47980;48.794;9.176;2023-05-25T07:59:50;98776.25;;;16.14;58.23
13767;BME280;47980;48.794;9.176;2023-05-25T08:02:22;98771.31;;;16.32;57.74
13767;BME280;47980;48.794;9.176;2023-05-25T08:04:53;98770.34;;;15.93;58.46
13767;BME280;47980;48.794;9.176;2023-05-25T08:07:25;98775.03;;;16.11;58.30
13767;BME280;47980;48.794;9.176;2023-05-25T08:09:56;98773.47;;;16.10;57.99
13767;BME280;47980;48.794;9.176;2023-05-25T08:12:29;98764.13;;;16.52;57.93
13767;BME280;47980;48.794;9.176;2023-05-25T08:15:01;98765.38;;;17.05;56.79
13767;BME280;47980;48.794;9.176;2023-05-25T08:17:33;98759.31;;;17.08;56.15
13767;BME280;47980;48.794;9.176;2023-05-25T08:20:07;98756.44;;;16.66;58.02
13767;BME280;47980;48.794;9.176;2023-05-25T08:22:39;98765.19;;;17.14;56.33
13767;BME280;47980;48.794;9.176;2023-05-25T08:25:11;98770.19;;;17.35;56.40
13767;BME280;47980;48.794;9.176;2023-05-25T08:27:45;98770.94;;;17.74;54.87
13767;BME280;47980;48.794;9.176;2023-05-25T08:30:17;98769.31;;;17.89;55.30
13767;BME280;47980;48.794;9.176;2023-05-25T08:32:49;98769.13;;;17.78;55.08
13767;BME280;47980;48.794;9.176;2023-05-25T08:35:29;98771.31;;;18.15;55.36
13767;BME280;47980;48.794;9.176;2023-05-25T08:38:01;98787.59;;;18.03;55.33
13767;BME280;47980;48.794;9.176;2023-05-25T08:40:33;98781.28;;;17.33;56.84
13767;BME280;47980;48.794;9.176;2023-05-25T08:43:06;98784.84;;;17.99;56.14
13767;BME280;47980;48.794;9.176;2023-05-25T08:45:37;98781.06;;;18.23;54.96
13767;BME280;47980;48.794;9.176;2023-05-25T08:48:09;98783.38;;;17.63;55.41
13767;BME280;47980;48.794;9.176;2023-05-25T08:50:44;98782.19;;;18.45;54.35
13767;BME280;47980;48.794;9.176;2023-05-25T08:53:17;98783.53;;;17.70;55.36
13767;BME280;47980;48.794;9.176;2023-05-25T08:55:51;98783.31;;;17.79;55.90
13767;BME280;47980;48.794;9.176;2023-05-25T08:58:31;98781.63;;;17.32;57.04
13767;BME280;47980;48.794;9.176;2023-05-25T09:01:06;98774.88;;;17.03;58.32
13767;BME280;47980;48.794;9.176;2023-05-25T09:03:38;98775.28;;;17.79;56.51
13767;BME280;47980;48.794;9.176;2023-05-25T09:06:10;98775.47;;;17.90;56.03
13767;BME280;47980;48.794;9.176;2023-05-25T09:08:42;98769.38;;;17.93;55.83
13767;BME280;47980;48.794;9.176;2023-05-25T09:11:14;98773.22;;;17.72;56.51
13767;BME280;47980;48.794;9.176;2023-05-25T09:13:48;98775.78;;;17.65;57.76
13767;BME280;47980;48.794;9.176;2023-05-25T09:16:21;98768.81;;;18.03;57.81
13767;BME280;47980;48.794;9.176;2023-05-25T09:18:53;98770.59;;;17.95;56.65
13767;BME280;47980;48.794;9.176;2023-05-25T09:21:24;98766.56;;;18.55;55.24
13767;BME280;47980;48.794;9.176;2023-05-25T09:23:57;98770.72;;;19.28;52.84
13767;BME280;47980;48.794;9.176;2023-05-25T09:26:28;98770.78;;;19.35;52.51
13767;BME280;47980;48.794;9.176;2023-05-25T09:29:01;98775.47;;;19.12;54.00
13767;BME280;47980;48.794;9.176;2023-05-25T09:31:33;98775.75;;;19.03;54.54
13767;BME280;47980;48.794;9.176;2023-05-25T09:34:10;98781.44;;;18.98;53.04
13767;BME280;47980;48.794;9.176;2023-05-25T09:36:42;98791.88;;;18.76;55.15
13767;BME280;47980;48.794;9.176;2023-05-25T09:39:14;98773.91;;;19.07;54.05
13767;BME280;47980;48.794;9.176;2023-05-25T09:41:46;98779.13;;;19.90;52.09
13767;BME280;47980;48.794;9.176;2023-05-25T09:44:18;98782.56;;;19.87;53.18
13767;BME280;47980;48.794;9.176;2023-05-25T09:46:52;98777.06;;;19.46;53.42
13767;BME280;47980;48.794;9.176;2023-05-25T09:49:25;98774.63;;;19.04;54.69
13767;BME280;47980;48.794;9.176;2023-05-25T09:51:57;98781.53;;;19.05;53.08
13767;BME280;47980;48.794;9.176;2023-05-25T09:54:28;98784.59;;;19.34;52.93
13767;BME280;47980;48.794;9.176;2023-05-25T09:57:01;98789.72;;;19.46;53.53
13767;BME280;47980;48.794;9.176;2023-05-25T09:59:35;98780.13;;;19.79;52.62
13767;BME280;47980;48.794;9.176;2023-05-25T10:02:08;98775.72;;;20.01;52.34
13767;BME280;47980;48.794;9.176;2023-05-25T10:04:39;98783.22;;;20.18;52.09
13767;BME280;47980;48.794;9.176;2023-05-25T10:07:12;98775.84;;;20.52;51.37
13767;BME280;47980;48.794;9.176;2023-05-25T10:09:45;98769.13;;;20.90;51.72
13767;BME280;47980;48.794;9.176;2023-05-25T10:12:18;98772.72;;;20.50;50.96
13767;BME280;47980;48.794;9.176;2023-05-25T10:14:52;98781.84;;;20.86;51.63
13767;BME280;47980;48.794;9.176;2023-05-25T10:17:26;98790.25;;;20.33;50.33
13767;BME280;47980;48.794;9.176;2023-05-25T10:19:59;98777.88;;;20.25;53.61
13767;BME280;47980;48.794;9.176;2023-05-25T10:22:32;98768.19;;;20.61;51.05
13767;BME280;47980;48.794;9.176;2023-05-25T10:25:09;98770.16;;;21.37;49.45
13767;BME280;47980;48.794;9.176;2023-05-25T10:27:46;98767.78;;;21.25;49.72
13767;BME280;47980;48.794;9.176;2023-05-25T10:30:19;98784.72;;;21.19;50.69
13767;BME280;47980;48.794;9.176;2023-05-25T10:32:52;98781.09;;;20.93;50.57
13767;BME280;47980;48.794;9.176;2023-05-25T10:35:24;98787.94;;;21.46;49.53
13767;BME280;47980;48.794;9.176;2023-05-25T10:37:57;98775.22;;;20.77;50.94
13767;BME280;47980;48.794;9.176;2023-05-25T10:40:29;98773.00;;;20.89;50.99
13767;BME280;47980;48.794;9.176;2023-05-25T10:43:02;98776.91;;;20.99;49.58
13767;BME280;47980;48.794;9.176;2023-05-25T10:45:36;98769.28;;;21.15;50.13
13767;BME280;47980;48.794;9.176;2023-05-25T10:48:08;98775.41;;;21.12;49.64
13767;BME280;47980;48.794;9.176;2023-05-25T10:50:39;98763.31;;;21.61;49.30
13767;BME280;47980;48.794;9.176;2023-05-25T10:53:12;98756.94;;;21.11;50.01
13767;BME280;47980;48.794;9.176;2023-05-25T10:55:48;98759.88;;;21.75;49.87
13767;BME280;47980;48.794;9.176;2023-05-25T10:58:31;98766.34;;;21.53;48.95
13767;BME280;47980;48.794;9.176;2023-05-25T11:01:07;98762.78;;;21.31;50.08
13767;BME280;47980;48.794;9.176;2023-05-25T11:03:56;98777.59;;;20.85;50.40
13767;BME280;47980;48.794;9.176;2023-05-25T11:07:06;98778.56;;;21.22;49.85
13767;BME280;47980;48.794;9.176;2023-05-25T11:09:55;98770.97;;;21.49;50.34
13767;BME280;47980;48.794;9.176;2023-05-25T11:12:27;98770.91;;;21.34;50.88
13767;BME280;47980;48.794;9.176;2023-05-25T11:15:09;98762.88;;;21.52;50.62
13767;BME280;47980;48.794;9.176;2023-05-25T11:17:57;98768.28;;;21.49;50.99
13767;BME280;47980;48.794;9.176;2023-05-25T11:20:29;98762.06;;;21.34;49.70
13767;BME280;47980;48.794;9.176;2023-05-25T11:23:21;98766.41;;;21.74;49.48
13767;BME280;47980;48.794;9.176;2023-05-25T11:26:03;98773.38;;;21.72;48.69
13767;BME280;47980;48.794;9.176;2023-05-25T11:28:44;98766.09;;;22.04;48.89
13767;BME280;47980;48.794;9.176;2023-05-25T11:31:19;98750.69;;;22.23;48.88
13767;BME280;47980;48.794;9.176;2023-05-25T11:33:55;98760.31;;;22.09;48.67
13767;BME280;47980;48.794;9.176;2023-05-25T11:36:30;98768.69;;;21.54;49.13
13767;BME280;47980;48.794;9.176;2023-05-25T11:39:04;98757.53;;;21.67;48.80
13767;BME280;47980;48.794;9.176;2023-05-25T11:41:36;98760.56;;;21.47;48.95
13767;BME280;47980;48.794;9.176;2023-05-25T11:44:08;98756.00;;;21.76;49.40
13767;BME280;47980;48.794;9.176;2023-05-25T11:46:40;98753.28;;;21.58;48.77
13767;BME280;47980;48.794;9.176;2023-05-25T11:49:13;98747.22;;;22.19;48.78
13767;BME280;47980;48.794;9.176;2023-05-25T11:51:45;98748.00;;;22.48;46.76
13767;BME280;47980;48.794;9.176;2023-05-25T11:54:21;98751.84;;;22.15;47.07
13767;BME280;47980;48.794;9.176;2023-05-25T11:56:53;98751.38;;;21.70;48.20
13767;BME280;47980;48.794;9.176;2023-05-25T11:59:28;98752.59;;;22.40;47.90
13767;BME280;47980;48.794;9.176;2023-05-25T12:02:01;98755.31;;;22.33;48.34
13767;BME280;47980;48.794;9.176;2023-05-25T12:04:34;98757.66;;;22.34;48.12
13767;BME280;47980;48.794;9.176;2023-05-25T12:07:06;98749.53;;;22.27;47.27
13767;BME280;47980;48.794;9.176;2023-05-25T12:09:38;98751.81;;;21.86;48.83
13767;BME280;47980;48.794;9.176;2023-05-25T12:12:10;98739.88;;;22.48;47.62
13767;BME280;47980;48.794;9.176;2023-05-25T12:14:45;98747.19;;;22.40;47.75
13767;BME280;47980;48.794;9.176;2023-05-25T12:17:19;98746.78;;;22.92;46.16
13767;BME280;47980;48.794;9.176;2023-05-25T12:19:52;98753.00;;;22.42;46.73
13767;BME280;47980;48.794;9.176;2023-05-25T12:22:24;98752.59;;;22.33;46.47
13767;BME280;47980;48.794;9.176;2023-05-25T12:24:56;98746.03;;;22.09;47.68
13767;BME280;47980;48.794;9.176;2023-05-25T12:27:28;98746.81;;;22.49;46.94
13767;BME280;47980;48.794;9.176;2023-05-25T12:29:59;98742.53;;;22.66;46.43
13767;BME280;47980;48.794;9.176;2023-05-25T12:32:31;98753.34;;;22.62;46.04
13767;BME280;47980;48.794;9.176;2023-05-25T12:35:05;98747.91;;;22.76;46.62
13767;BME280;47980;48.794;9.176;2023-05-25T12:37:37;98739.09;;;22.44;47.69
13767;BME280;47980;48.794;9.176;2023-05-25T12:40:18;98744.91;;;22.31;47.08
13767;BME280;47980;48.794;9.176;2023-05-25T12:42:56;98744.47;;;22.69;46.78
13767;BME280;47980;48.794;9.176;2023-05-25T12:45:28;98746.75;;;22.95;46.31
13767;BME280;47980;48.794;9.176;2023-05-25T12:48:00;98745.63;;;22.68;46.79
13767;BME280;47980;48.794;9.176;2023-05-25T12:50:33;98753.75;;;22.64;46.69
13767;BME280;47980;48.794;9.176;2023-05-25T12:53:06;98749.13;;;22.32;47.40
13767;BME280;47980;48.794;9.176;2023-05-25T12:55:38;98743.25;;;22.98;46.04
13767;BME280;47980;48.794;9.176;2023-05-25T12:58:25;98739.66;;;23.30;45.93
13767;BME280;47980;48.794;9.176;2023-05-25T13:00:57;98742.81;;;23.14;45.88
13767;BME280;47980;48.794;9.176;2023-05-25T13:03:37;98747.94;;;22.73;46.40
13767;BME280;47980;48.794;9.176;2023-05-25T13:06:10;98752.19;;;22.77;46.79
13767;BME280;47980;48.794;9.176;2023-05-25T13:08:41;98750.25;;;22.81;46.18
13767;BME280;47980;48.794;9.176;2023-05-25T13:11:13;98730.97;;;23.64;45.50
13767;BME280;47980;48.794;9.176;2023-05-25T13:13:45;98738.59;;;23.90;44.79
13767;BME280;47980;48.794;9.176;2023-05-25T13:16:18;98745.16;;;23.05;45.56
13767;BME280;47980;48.794;9.176;2023-05-25T13:18:49;98743.59;;;23.18;45.16
13767;BME280;47980;48.794;9.176;2023-05-25T13:21:22;98732.31;;;23.30;45.69
13767;BME280;47980;48.794;9.176;2023-05-25T13:23:54;98733.63;;;22.76;46.25
13767;BME280;47980;48.794;9.176;2023-05-25T13:26:25;98738.28;;;22.68;46.33
13767;BME280;47980;48.794;9.176;2023-05-25T13:28:57;98723.97;;;22.75;46.59
13767;BME280;47980;48.794;9.176;2023-05-25T13:31:28;98732.03;;;23.03;46.06